»·PEaware :: N6870P KFNL-KDRO

N6870P :: KFNL-KDRO

FLIGHT INFORMATION

Flight Status: Arrived
Operator: Privately registered:
United States
More flights under this callsign
Pilot: Larry J. (31147)
Aircraft: PIPER PA-24 COMMANCHE
(PA24)
More flights by this aircraft type
Origin: KFNL Northern Colorado Regional Airport
United States
Destination: KDRO Durango-La Plata Co
United States
More flights between these airports :: More routes between these airports
Route:
File this flight plan on PilotEdge
Remarks:
Altitude:
(Current/Filed)
14,500ft
Speed:
(Current/Filed)
180kts
Departed: 13-May-21 06:33 AM
Arrived: 13-May-21 08:27 AM
Distance/Time
Traveled:
236nm/1:54
Distance/Time
To Go:
Arrived

Flight Plot

Page will automatically refresh every two minutes.

Flight plan parsing failed; only flown route is shown


Map Options




Map Legend


Flown Route
Filed Route
Departure Airport
Arrival Airport
Navaid (VOR, NDB)
Fix

Horizontal Profiles

Position Reports

Time Latitude Longitude Heading Altitude Ground
Speed
13-May-21 06:31 40.449204 -105.008795 50 4999ft 0kts
13-May-21 06:32 40.448627 -105.009944 188 4998ft 15kts
13-May-21 06:33 40.460576 -105.016230 346 5431ft 78kts
13-May-21 06:34 40.480152 -105.035540 231 6388ft 129kts
13-May-21 06:35 40.446171 -105.056217 215 7504ft 140kts
13-May-21 06:36 40.416568 -105.082664 213 8847ft 106kts
13-May-21 06:37 40.393417 -105.102368 212 10039ft 107kts
13-May-21 06:38 40.366794 -105.125527 213 11066ft 121kts
13-May-21 06:39 40.338094 -105.150381 213 12070ft 125kts
13-May-21 06:40 40.308927 -105.174893 208 13065ft 124kts
13-May-21 06:41 40.279347 -105.196009 208 14054ft 118kts
13-May-21 06:42 40.248685 -105.218667 209 14483ft 149kts
13-May-21 06:43 40.211222 -105.246473 209 14940ft 149kts
13-May-21 06:44 40.175043 -105.273109 209 15154ft 170kts
13-May-21 06:45 40.131209 -105.310049 224 14474ft 186kts
13-May-21 06:46 40.097145 -105.353166 224 14469ft 160kts
13-May-21 06:46 40.071366 -105.385232 209 14459ft 147kts
13-May-21 06:47 40.032683 -105.382384 192 14471ft 139kts
13-May-21 06:49 39.993122 -105.406491 209 14470ft 130kts
13-May-21 06:50 39.962972 -105.428751 209 14470ft 120kts
13-May-21 06:51 39.934256 -105.449717 209 14473ft 119kts
13-May-21 06:52 39.905725 -105.470543 209 14491ft 118kts
13-May-21 06:52 39.881667 -105.488098 209 14491ft 119kts
13-May-21 06:53 39.852471 -105.509392 209 14491ft 121kts
13-May-21 06:54 39.823013 -105.530855 209 14490ft 121kts
13-May-21 06:55 39.793520 -105.552319 209 14490ft 121kts
13-May-21 06:56 39.764014 -105.573771 209 14490ft 122kts
13-May-21 06:57 39.734482 -105.595217 209 14490ft 122kts
13-May-21 06:58 39.704876 -105.616697 209 14490ft 122kts
13-May-21 06:59 39.675277 -105.638151 209 14490ft 122kts
13-May-21 07:00 39.645755 -105.659528 208 14490ft 122kts
13-May-21 07:01 39.616104 -105.680978 208 14490ft 122kts
13-May-21 07:02 39.586522 -105.702355 208 14490ft 122kts
13-May-21 07:03 39.556896 -105.723743 208 14490ft 122kts
13-May-21 07:04 39.527290 -105.745097 208 14490ft 122kts
13-May-21 07:05 39.497537 -105.766186 199 14489ft 122kts
13-May-21 07:06 39.466544 -105.778869 210 14491ft 121kts
13-May-21 07:07 39.437007 -105.800388 208 14490ft 122kts
13-May-21 07:08 39.407479 -105.821677 208 14490ft 122kts
13-May-21 07:09 39.377892 -105.843043 208 14490ft 122kts
13-May-21 07:10 39.348247 -105.864429 208 14490ft 122kts
13-May-21 07:11 39.318620 -105.885784 208 14490ft 122kts
13-May-21 07:12 39.289015 -105.907103 208 14490ft 122kts
13-May-21 07:13 39.259394 -105.928412 208 14490ft 122kts
13-May-21 07:14 39.229704 -105.949755 208 14491ft 122kts
13-May-21 07:15 39.199840 -105.971215 208 14491ft 123kts
13-May-21 07:16 39.169843 -105.992737 208 14490ft 124kts
13-May-21 07:17 39.139703 -106.014335 208 14490ft 124kts
13-May-21 07:18 39.109552 -106.035920 208 14490ft 124kts
13-May-21 07:19 39.079401 -106.057483 208 14490ft 124kts
13-May-21 07:20 39.049233 -106.079037 208 14490ft 124kts
13-May-21 07:21 39.019148 -106.100510 208 14490ft 124kts
13-May-21 07:22 38.988932 -106.122055 208 14490ft 124kts
13-May-21 07:23 38.958778 -106.143535 208 14490ft 124kts
13-May-21 07:24 38.928614 -106.165002 208 14490ft 124kts
13-May-21 07:25 38.898357 -106.186512 208 14490ft 124kts
13-May-21 07:26 38.868107 -106.207995 208 14490ft 124kts
13-May-21 07:27 38.837933 -106.229405 208 14490ft 124kts
13-May-21 07:28 38.807753 -106.250798 208 14490ft 124kts
13-May-21 07:29 38.777511 -106.272214 208 14490ft 124kts
13-May-21 07:30 38.747203 -106.293655 208 14490ft 124kts
13-May-21 07:31 38.717009 -106.314996 208 14490ft 124kts
13-May-21 07:32 38.686786 -106.336336 208 14490ft 124kts
13-May-21 07:33 38.656551 -106.357663 208 14490ft 124kts
13-May-21 07:34 38.626232 -106.379029 208 14490ft 124kts
13-May-21 07:35 38.595976 -106.400329 208 14490ft 124kts
13-May-21 07:36 38.565791 -106.421559 208 14490ft 124kts
13-May-21 07:37 38.535431 -106.442892 208 14490ft 124kts
13-May-21 07:38 38.505233 -106.464089 208 14490ft 124kts
13-May-21 07:39 38.474905 -106.485358 208 14490ft 124kts
13-May-21 07:40 38.444626 -106.506572 208 14490ft 124kts
13-May-21 07:41 38.414332 -106.527776 208 14490ft 124kts
13-May-21 07:42 38.384006 -106.548982 208 14490ft 124kts
13-May-21 07:43 38.353739 -106.570125 208 14490ft 124kts
13-May-21 07:44 38.323446 -106.591267 208 14490ft 124kts
13-May-21 07:45 38.293133 -106.612402 208 14490ft 124kts
13-May-21 07:46 38.262771 -106.633552 208 14490ft 124kts
13-May-21 07:47 38.232440 -106.654658 208 14490ft 124kts
13-May-21 07:48 38.202136 -106.675724 208 14490ft 124kts
13-May-21 07:49 38.171821 -106.696780 208 14490ft 124kts
13-May-21 07:50 38.141503 -106.717817 208 14490ft 124kts
13-May-21 07:51 38.111078 -106.738908 208 14490ft 124kts
13-May-21 07:52 38.080785 -106.759888 208 14490ft 124kts
13-May-21 07:53 38.050367 -106.780934 208 14490ft 124kts
13-May-21 07:54 38.020050 -106.801890 208 14490ft 124kts
13-May-21 07:55 37.989664 -106.822874 208 14490ft 124kts
13-May-21 07:56 37.959219 -106.843879 208 14490ft 124kts
13-May-21 07:57 37.928921 -106.864762 208 14490ft 124kts
13-May-21 07:58 37.898425 -106.885762 208 14490ft 124kts
13-May-21 07:59 37.868090 -106.906632 208 14490ft 124kts
13-May-21 08:00 37.837634 -106.927564 208 14490ft 124kts
13-May-21 08:01 37.807261 -106.948420 208 14490ft 124kts
13-May-21 08:02 37.776810 -106.969310 208 14490ft 124kts
13-May-21 08:03 37.746373 -106.990169 208 14490ft 124kts
13-May-21 08:04 37.715955 -107.010997 208 14490ft 124kts
13-May-21 08:05 37.685471 -107.031850 208 14490ft 124kts
13-May-21 08:06 37.655038 -107.052649 208 14490ft 124kts
13-May-21 08:07 37.624000 -107.073770 207 14503ft 141kts
13-May-21 08:08 37.584715 -107.100548 208 14493ft 172kts
13-May-21 08:09 37.541552 -107.130059 208 14389ft 183kts
13-May-21 08:10 37.495149 -107.161724 208 13902ft 193kts
13-May-21 08:11 37.447682 -107.193996 208 13405ft 195kts
13-May-21 08:12 37.399881 -107.226455 208 12906ft 195kts
13-May-21 08:13 37.352208 -107.258763 208 12408ft 195kts
13-May-21 08:14 37.304435 -107.291075 208 11908ft 195kts
13-May-21 08:15 37.256672 -107.323330 208 11410ft 195kts
13-May-21 08:16 37.225414 -107.372982 273 10989ft 191kts
13-May-21 08:17 37.250416 -107.428591 304 10990ft 183kts
13-May-21 08:18 37.279146 -107.480926 304 10990ft 182kts
13-May-21 08:19 37.303768 -107.535477 271 10989ft 182kts
13-May-21 08:20 37.280110 -107.590193 236 10990ft 182kts
13-May-21 08:21 37.250847 -107.643876 235 10505ft 201kts
13-May-21 08:22 37.218210 -107.683859 221 9137ft 112kts
13-May-21 08:23 37.199202 -107.704142 220 8179ft 93kts
13-May-21 08:24 37.180402 -107.725827 220 7168ft 80kts
13-May-21 08:25 37.163093 -107.742710 216 6738ft 74kts
13-May-21 08:26 37.156086 -107.751310 322 6687ft 13kts
13-May-21 08:27 37.156420 -107.751690 207 6687ft 0kts
13-May-21 08:28 37.156420 -107.751690 207 6687ft 0kts
13-May-21 08:29 37.156420 -107.751690 207 6687ft 0kts
13-May-21 08:30 37.156420 -107.751690 207 6687ft 0kts
13-May-21 08:31 37.156420 -107.751690 207 6687ft 0kts
13-May-21 08:32 37.156420 -107.751690 207 6687ft 0kts
13-May-21 08:33 37.156420 -107.751690 207 6687ft 0kts
13-May-21 08:34 37.156420 -107.751690 207 6687ft 0kts
13-May-21 08:35 37.156420 -107.751690 207 6687ft 0kts
13-May-21 08:36 37.156420 -107.751690 207 6687ft 0kts
13-May-21 08:37 37.156420 -107.751690 207 6687ft 0kts
13-May-21 08:38 37.156420 -107.751690 207 6687ft 0kts
13-May-21 08:39 37.156420 -107.751690 207 6687ft 0kts

Navigation Log

Ident Type
Flight plan parsing failed, navigation log unavailable